LiveATC.Net - Listen to live air traffic control over the Internet!


ICAO: LPMA  IATA: FNC   Airport: Madeira International Airport
City: Madeira
Country: Portugal   Continent: Europe
LPMA METAR Weather: LPMA 161100Z 35022G35KT 310V020 9999 -DZ BKN015 FEW018CB 14/05 Q1009
LPMA Flight Activity (FlightAware)

LPMA Approach
Feed Status: UP   Listeners: 5
Listen in your browser - HTML5 player (in browser, HTML5)
Click here to listen with your own player (launches your MP3 player)
Archive Access: LPMA Approach
FacilityFrequency
Madeira Approach119.605

NOTICE

Unauthorized use prohibited. See LiveATC.net Terms of Service


Airport/ARTCC Code
Frequency Search
(e.g., 124.400, 128.75)
Site-wide search
 


Browse Feeds
Top 50 Feeds
Coverage Map
Bad Weather Areas

LiveATC FAQ
Offer LiveATC feed
Contact LiveATC.net
Press Inquiries

LiveATC on iPhone
LiveATC on Android

Windows Phone
Windows 8/10

LiveATC Mobile
(Mobile browser)

ATC Audio Archives
Interesting Recordings

LiveATC Forums


Home Page
About LiveATC.net
Make a Donation
Terms of Use
Privacy Policy

Canadian Air Freqs

AIRMETs/SIGMETs

FAA Airport Status
Nat'l Airspace Status
Arrival Demand Charts


Server Software By:
Icecast.org
Liquidsoap